createdAt,value
2023-01-09T00:01:32.761Z,15.00
2023-01-09T00:04:00.839Z,12.55
2023-01-09T00:06:29.088Z,14.40
2023-01-09T00:08:57.272Z,14.52
2023-01-09T00:11:25.374Z,14.30
2023-01-09T00:13:53.458Z,12.82
2023-01-09T00:16:22.891Z,14.15
2023-01-09T00:18:51.063Z,12.63
2023-01-09T00:21:19.068Z,14.38
2023-01-09T00:23:48.097Z,11.65
2023-01-09T00:26:17.758Z,11.85
2023-01-09T00:28:46.151Z,12.10
2023-01-09T00:31:14.378Z,13.73
2023-01-09T00:33:45.804Z,11.13
2023-01-09T00:36:13.947Z,13.88
2023-01-09T00:38:42.126Z,13.00
2023-01-09T00:41:13.082Z,16.73
2023-01-09T00:43:45.669Z,14.95
2023-01-09T00:46:14.815Z,15.68
2023-01-09T00:48:46.561Z,17.08
2023-01-09T00:51:14.867Z,16.85
2023-01-09T00:53:43.994Z,14.90
2023-01-09T00:56:15.885Z,13.23
2023-01-09T00:58:44.094Z,16.48
2023-01-09T01:01:12.335Z,13.82
2023-01-09T01:03:40.604Z,15.05
2023-01-09T01:06:27.487Z,13.65
2023-01-09T01:08:56.741Z,15.82
2023-01-09T01:11:24.912Z,17.48
2023-01-09T01:13:53.172Z,15.02
2023-01-09T01:16:21.220Z,15.80
2023-01-09T01:18:49.306Z,16.63
2023-01-09T01:21:19.113Z,15.30
2023-01-09T01:23:47.133Z,19.20
2023-01-09T01:26:16.874Z,17.65
2023-01-09T01:28:45.280Z,17.60
2023-01-09T01:31:17.645Z,20.98
2023-01-09T01:33:45.680Z,19.40
2023-01-09T01:36:16.312Z,19.95
2023-01-09T01:38:46.859Z,19.60
2023-01-09T01:41:29.219Z,19.98
2023-01-09T01:46:26.092Z,20.05
2023-01-09T01:48:56.181Z,18.73
2023-01-09T01:51:26.269Z,19.65
2023-01-09T01:53:58.925Z,18.98
2023-01-09T01:56:30.113Z,20.63
2023-01-09T01:59:03.092Z,18.52
2023-01-09T02:01:32.967Z,17.00
2023-01-09T02:04:02.935Z,19.40
2023-01-09T02:06:31.804Z,18.52
2023-01-09T02:09:01.941Z,21.48
2023-01-09T02:11:30.116Z,28.13
2023-01-09T02:13:58.703Z,22.55
2023-01-09T02:16:37.784Z,24.20
2023-01-09T02:19:12.583Z,26.25
2023-01-09T02:21:49.714Z,22.15
2023-01-09T02:24:50.589Z,25.25
2023-01-09T02:27:40.877Z,27.05
2023-01-09T02:30:27.401Z,24.30
2023-01-09T02:33:02.746Z,25.98
2023-01-09T02:35:41.502Z,25.48
2023-01-09T02:38:16.191Z,28.50
2023-01-09T02:40:49.062Z,26.25
2023-01-09T02:43:17.284Z,27.48
2023-01-09T02:45:46.725Z,27.40
2023-01-09T02:48:15.061Z,25.10
2023-01-09T02:50:47.466Z,32.22
2023-01-09T02:53:52.070Z,25.02
2023-01-09T02:56:28.857Z,24.90
2023-01-09T02:59:11.818Z,27.67
2023-01-09T03:01:46.451Z,27.58
2023-01-09T03:04:21.425Z,27.33
2023-01-09T03:06:54.735Z,24.50
2023-01-09T03:09:25.869Z,27.48
2023-01-09T03:11:57.222Z,25.40
2023-01-09T03:14:27.356Z,25.67
2023-01-09T03:16:58.198Z,26.52
2023-01-09T03:19:28.341Z,26.90
2023-01-09T03:21:56.400Z,30.90
2023-01-09T03:24:24.671Z,28.30
2023-01-09T03:26:54.306Z,27.58
2023-01-09T03:29:22.702Z,25.90
2023-01-09T03:31:51.077Z,25.35
2023-01-09T03:34:20.786Z,29.95
2023-01-09T03:36:49.067Z,23.15
2023-01-09T03:39:17.213Z,28.65
2023-01-09T03:41:45.531Z,30.80
2023-01-09T03:44:13.502Z,29.90
2023-01-09T03:46:41.573Z,27.92
2023-01-09T03:49:09.648Z,26.45
2023-01-09T03:51:38.959Z,25.45
2023-01-09T03:54:07.065Z,26.88
2023-01-09T03:56:35.120Z,27.85
2023-01-09T03:59:03.308Z,30.35
2023-01-09T04:01:31.410Z,28.10
2023-01-09T04:03:59.479Z,27.55
2023-01-09T04:06:27.525Z,26.42
2023-01-09T04:08:56.850Z,30.15
2023-01-09T04:11:25.012Z,30.75
2023-01-09T04:13:53.083Z,32.80
2023-01-09T04:16:21.217Z,27.67
2023-01-09T04:18:49.263Z,28.33
2023-01-09T04:21:17.415Z,32.70
2023-01-09T04:23:45.711Z,30.90
2023-01-09T04:26:15.386Z,32.30
2023-01-09T04:28:43.550Z,32.10
2023-01-09T04:31:11.770Z,33.80
2023-01-09T04:33:39.846Z,30.13
2023-01-09T04:36:08.744Z,31.77
2023-01-09T04:38:36.809Z,28.10
2023-01-09T04:41:04.821Z,28.90
2023-01-09T04:43:34.199Z,29.00
2023-01-09T04:46:02.997Z,34.90
2023-01-09T04:48:31.026Z,31.50
2023-01-09T04:50:58.991Z,31.10
2023-01-09T04:53:27.329Z,32.55
2023-01-09T04:55:55.393Z,34.33
2023-01-09T04:58:23.351Z,32.00
2023-01-09T05:00:52.789Z,34.47
2023-01-09T05:03:20.971Z,32.75
2023-01-09T05:05:49.047Z,34.03
2023-01-09T05:08:17.033Z,34.35
2023-01-09T05:10:45.086Z,38.88
2023-01-09T05:13:13.143Z,31.98
2023-01-09T05:15:41.122Z,34.70
2023-01-09T05:18:10.539Z,33.95
2023-01-09T05:20:38.596Z,37.67
2023-01-09T05:23:06.668Z,37.28
2023-01-09T05:25:34.773Z,37.80
2023-01-09T05:28:02.800Z,36.47
2023-01-09T05:30:31.842Z,37.38
2023-01-09T05:33:00.155Z,33.38
2023-01-09T05:35:30.155Z,33.55
2023-01-09T05:37:58.329Z,35.35
2023-01-09T05:40:32.088Z,31.90
2023-01-09T05:43:00.500Z,34.95
2023-01-09T05:45:28.672Z,34.95
2023-01-09T05:47:57.449Z,34.88
2023-01-09T05:50:25.533Z,39.80
2023-01-09T05:52:55.031Z,38.35
2023-01-09T05:55:23.112Z,37.30
2023-01-09T05:57:51.483Z,37.88
2023-01-09T06:00:20.791Z,40.13
2023-01-09T06:02:48.981Z,38.05
2023-01-09T06:05:17.417Z,40.92
2023-01-09T06:07:45.448Z,41.47
2023-01-09T06:10:16.132Z,43.53
2023-01-09T06:12:48.110Z,42.72
2023-01-09T06:15:16.699Z,43.45
2023-01-09T06:17:45.173Z,44.47
2023-01-09T06:20:13.386Z,46.03
2023-01-09T06:22:41.836Z,43.47
2023-01-09T06:25:10.757Z,44.88
2023-01-09T06:27:40.408Z,48.03
2023-01-09T06:30:10.017Z,43.97
2023-01-09T06:32:38.111Z,48.13
2023-01-09T06:35:06.868Z,54.22
2023-01-09T06:37:34.927Z,54.15
2023-01-09T06:40:03.493Z,51.45
2023-01-09T06:42:31.818Z,50.13
2023-01-09T06:45:01.374Z,54.13
2023-01-09T06:47:29.679Z,53.00
2023-01-09T06:49:58.210Z,54.25
2023-01-09T06:52:26.371Z,49.17
2023-01-09T06:54:54.662Z,59.88
2023-01-09T06:57:22.908Z,59.63
2023-01-09T06:59:50.959Z,59.55
2023-01-09T07:02:22.492Z,57.90
2023-01-09T07:04:50.676Z,56.25
2023-01-09T07:07:19.836Z,65.97
2023-01-09T07:09:47.820Z,61.20
2023-01-09T07:12:16.230Z,62.72
2023-01-09T07:14:44.864Z,69.43
2023-01-09T07:17:13.828Z,67.00
2023-01-09T07:19:43.151Z,66.55
2023-01-09T07:22:11.689Z,61.80
2023-01-09T07:24:39.796Z,69.03
2023-01-09T07:27:07.875Z,69.55
2023-01-09T07:29:35.943Z,70.28
2023-01-09T07:32:04.508Z,68.60
2023-01-09T07:34:32.600Z,65.00
2023-01-09T07:37:03.342Z,72.97
2023-01-09T07:39:31.397Z,69.70
2023-01-09T07:41:59.432Z,69.93
2023-01-09T07:44:27.468Z,80.75
2023-01-09T07:46:55.775Z,74.78
2023-01-09T07:49:26.028Z,71.35
2023-01-09T07:51:54.815Z,70.97
2023-01-09T07:54:24.209Z,68.60
2023-01-09T07:56:52.405Z,71.90
2023-01-09T07:59:20.723Z,67.53
2023-01-09T08:01:49.140Z,72.88
2023-01-09T08:04:17.531Z,67.90
2023-01-09T08:06:45.665Z,77.00
2023-01-09T08:09:14.142Z,70.30
2023-01-09T08:11:43.638Z,76.13
2023-01-09T08:14:11.903Z,63.67
2023-01-09T08:16:40.292Z,74.57
2023-01-09T08:19:12.062Z,64.82
2023-01-09T08:21:40.741Z,62.92
2023-01-09T08:24:10.174Z,66.25
2023-01-09T08:26:40.505Z,68.60
2023-01-09T08:29:10.169Z,59.33
2023-01-09T08:31:38.292Z,61.40
2023-01-09T08:34:06.569Z,58.47
2023-01-09T08:36:34.634Z,60.72
2023-01-09T08:39:02.714Z,64.90
2023-01-09T08:41:47.958Z,57.92
2023-01-09T08:44:35.249Z,56.15
2023-01-09T08:47:07.306Z,55.78
2023-01-09T08:49:37.164Z,58.60
2023-01-09T08:52:05.758Z,55.15
2023-01-09T08:54:33.851Z,50.10
2023-01-09T08:57:01.906Z,49.70
2023-01-09T08:59:31.711Z,51.60
2023-01-09T09:02:00.176Z,49.88
2023-01-09T09:04:28.372Z,57.25
2023-01-09T09:06:56.394Z,44.65
2023-01-09T09:09:25.757Z,49.33
2023-01-09T09:11:53.916Z,41.10
2023-01-09T09:14:39.569Z,48.05
2023-01-09T09:17:09.145Z,45.13
2023-01-09T09:19:37.176Z,44.85
2023-01-09T09:22:05.288Z,38.00
2023-01-09T09:24:33.317Z,45.13
2023-01-09T09:27:01.347Z,42.13
2023-01-09T09:29:29.356Z,38.10
2023-01-09T09:31:59.407Z,38.90
2023-01-09T09:34:30.675Z,38.13
2023-01-09T09:36:58.771Z,31.63
2023-01-09T09:39:26.896Z,29.13
2023-01-09T09:42:40.046Z,33.67
2023-01-09T09:45:17.667Z,32.38
2023-01-09T09:47:51.975Z,32.75
2023-01-09T09:50:40.076Z,27.80
2023-01-09T09:53:11.675Z,27.52
2023-01-09T09:55:43.447Z,27.10
2023-01-09T09:58:17.391Z,23.00
2023-01-09T10:00:45.862Z,29.13
2023-01-09T10:03:33.005Z,25.92
2023-01-09T10:06:05.624Z,32.38
2023-01-09T10:08:38.751Z,21.38
2023-01-09T10:11:10.759Z,26.80
2023-01-09T10:13:56.751Z,21.38
2023-01-09T10:16:36.584Z,18.77
2023-01-09T10:19:16.124Z,19.42
2023-01-09T10:21:50.989Z,15.65
2023-01-09T10:24:28.817Z,17.40
2023-01-09T10:26:57.611Z,16.70
2023-01-09T10:29:41.589Z,18.17
2023-01-09T10:32:40.435Z,15.80
2023-01-09T10:35:25.461Z,15.38
2023-01-09T10:37:55.536Z,16.15
2023-01-09T10:40:27.881Z,22.15
2023-01-09T10:45:27.006Z,15.45
2023-01-09T10:48:00.942Z,14.40
2023-01-09T10:50:34.490Z,16.27
2023-01-09T10:53:13.970Z,11.27
2023-01-09T10:55:44.751Z,12.55
2023-01-09T10:58:13.920Z,12.10
2023-01-09T11:00:42.573Z,12.73
2023-01-09T11:03:13.164Z,12.52
2023-01-09T11:05:44.377Z,11.40
2023-01-09T11:08:19.937Z,9.98
2023-01-09T11:10:50.164Z,13.00
2023-01-09T11:13:21.656Z,9.23
2023-01-09T11:16:01.261Z,11.67
2023-01-09T11:18:30.097Z,10.38
2023-01-09T11:21:13.904Z,10.02
2023-01-09T11:23:43.684Z,11.20
2023-01-09T11:26:24.939Z,9.30
2023-01-09T11:29:10.998Z,18.05
2023-01-09T11:31:40.244Z,10.95
2023-01-09T11:34:16.843Z,12.80
2023-01-09T11:36:45.472Z,7.97
2023-01-09T11:39:23.424Z,8.45
2023-01-09T11:41:54.610Z,9.85
2023-01-09T11:44:23.470Z,11.48
2023-01-09T11:46:51.998Z,13.77
2023-01-09T11:49:24.940Z,8.73
2023-01-09T11:52:13.486Z,9.75
2023-01-09T11:54:46.601Z,9.77
2023-01-09T11:57:14.691Z,7.03
2023-01-09T11:59:42.783Z,9.27
2023-01-09T12:02:42.542Z,5.55
2023-01-09T12:05:19.427Z,5.85
2023-01-09T12:08:07.778Z,9.32
2023-01-09T12:10:47.770Z,7.05
2023-01-09T12:13:25.599Z,5.80
2023-01-09T12:16:02.773Z,3.65
2023-01-09T12:18:42.314Z,5.88
2023-01-09T12:21:23.192Z,10.32
2023-01-09T12:24:04.619Z,8.75
2023-01-09T12:26:35.050Z,3.72
2023-01-09T12:29:15.930Z,6.05
2023-01-09T12:32:00.530Z,5.38
2023-01-09T12:34:39.155Z,5.25
2023-01-09T12:37:28.374Z,5.38
2023-01-09T12:40:03.245Z,5.70
2023-01-09T12:42:41.880Z,6.07
2023-01-09T12:45:27.999Z,6.63
2023-01-09T12:48:01.201Z,4.70
2023-01-09T12:50:56.065Z,5.13
2023-01-09T12:53:26.989Z,5.22
2023-01-09T12:56:06.169Z,5.30
2023-01-09T12:58:41.943Z,4.50
2023-01-09T13:01:15.023Z,8.43
2023-01-09T13:03:47.726Z,3.83
2023-01-09T13:06:18.129Z,5.65
2023-01-09T13:08:49.729Z,6.63
2023-01-09T13:11:22.241Z,4.25
2023-01-09T13:13:56.661Z,4.53
2023-01-09T13:16:29.191Z,4.07
2023-01-09T13:19:03.111Z,4.72
2023-01-09T13:21:34.789Z,4.32
2023-01-09T13:24:06.922Z,4.00
2023-01-09T13:26:39.122Z,4.97
2023-01-09T13:29:16.400Z,3.88
2023-01-09T13:32:05.713Z,5.10
2023-01-09T13:34:36.358Z,8.05
2023-01-09T13:37:05.392Z,9.57
2023-01-09T13:39:38.017Z,5.90
2023-01-09T13:42:26.144Z,6.13
2023-01-09T13:44:57.328Z,3.25
2023-01-09T13:47:28.841Z,5.95
2023-01-09T13:50:30.152Z,2.65
2023-01-09T13:53:00.812Z,14.20
2023-01-09T13:55:36.301Z,3.38
2023-01-09T13:58:27.497Z,3.55
2023-01-09T14:01:00.264Z,5.15
2023-01-09T14:03:34.008Z,5.18
2023-01-09T14:06:20.056Z,9.23
2023-01-09T14:08:52.104Z,4.72
2023-01-09T14:11:29.087Z,4.03
2023-01-09T14:14:09.179Z,3.50
2023-01-09T14:16:39.443Z,5.20
2023-01-09T14:19:22.467Z,1.83
2023-01-09T14:21:54.642Z,2.58
2023-01-09T14:24:26.649Z,3.65
2023-01-09T14:26:57.783Z,3.30
2023-01-09T14:29:47.880Z,2.95
2023-01-09T14:32:43.462Z,3.22
2023-01-09T14:35:39.645Z,5.90
2023-01-09T14:38:20.263Z,3.03
2023-01-09T14:40:55.597Z,4.70
2023-01-09T14:43:33.089Z,4.68
2023-01-09T14:46:06.233Z,6.25
2023-01-09T14:48:37.186Z,2.50
2023-01-09T14:51:08.694Z,5.13
2023-01-09T14:53:39.655Z,5.13
2023-01-09T14:56:15.093Z,2.03
2023-01-09T14:58:43.688Z,1.98
2023-01-09T15:01:18.875Z,3.72
2023-01-09T15:03:50.876Z,2.63
2023-01-09T15:06:21.032Z,5.97
2023-01-09T15:08:52.499Z,4.28
2023-01-09T15:11:20.825Z,3.63
2023-01-09T15:13:54.867Z,5.05
2023-01-09T15:16:25.547Z,4.00
2023-01-09T15:18:58.457Z,8.20
2023-01-09T15:21:31.213Z,4.53
2023-01-09T15:24:13.011Z,3.90
2023-01-09T15:26:41.161Z,2.72
2023-01-09T15:29:20.549Z,2.40
2023-01-09T15:31:52.419Z,7.60
2023-01-09T15:34:27.330Z,3.60
2023-01-09T15:36:57.576Z,5.63
2023-01-09T15:39:28.273Z,6.32
2023-01-09T15:42:14.757Z,3.70
2023-01-09T15:44:44.938Z,4.88
2023-01-09T15:47:18.617Z,4.47
2023-01-09T15:49:48.489Z,3.72
2023-01-09T15:52:19.407Z,8.40
2023-01-09T15:54:49.208Z,3.25
2023-01-09T15:57:35.627Z,3.95
2023-01-09T16:00:35.749Z,1.77
2023-01-09T16:03:12.761Z,3.47
2023-01-09T16:05:43.136Z,5.45
2023-01-09T16:08:22.232Z,1.92
2023-01-09T16:10:53.151Z,4.03
2023-01-09T16:13:24.309Z,6.43
2023-01-09T16:15:54.217Z,3.22
2023-01-09T16:18:29.623Z,4.55
2023-01-09T16:21:24.459Z,1.85
2023-01-09T16:23:58.754Z,2.15
2023-01-09T16:26:29.766Z,1.80
2023-01-09T16:28:58.593Z,7.03
2023-01-09T16:31:30.659Z,4.78
2023-01-09T16:34:00.846Z,4.82
2023-01-09T16:36:30.502Z,1.65
2023-01-09T16:39:00.830Z,6.40
2023-01-09T16:41:46.537Z,4.05
2023-01-09T16:44:14.805Z,1.67
2023-01-09T16:46:44.870Z,2.72
2023-01-09T16:49:18.580Z,2.15
2023-01-09T16:51:48.911Z,4.97
2023-01-09T16:54:17.547Z,3.22
2023-01-09T16:56:48.708Z,3.15
2023-01-09T16:59:21.109Z,4.07
2023-01-09T17:01:49.549Z,2.30
2023-01-09T17:04:20.183Z,3.47
2023-01-09T17:06:50.496Z,5.00
2023-01-09T17:09:25.833Z,4.35
2023-01-09T17:11:55.222Z,4.20
2023-01-09T17:14:24.552Z,4.70
2023-01-09T17:16:52.618Z,4.45
2023-01-09T17:19:21.333Z,178.93
2023-01-09T17:21:50.970Z,151.10
2023-01-09T17:24:38.446Z,9.38
2023-01-09T17:27:24.504Z,3.35
2023-01-09T17:29:54.174Z,4.75
2023-01-09T17:32:22.403Z,6.22
2023-01-09T17:34:50.409Z,7.38
2023-01-09T17:37:21.042Z,4.45
2023-01-09T17:39:49.565Z,7.68
2023-01-09T17:42:17.754Z,3.85
2023-01-09T17:44:45.916Z,2.60
2023-01-09T17:47:16.449Z,8.38
2023-01-09T17:49:44.870Z,1.90
2023-01-09T17:52:13.249Z,2.63
2023-01-09T17:54:43.373Z,2.95
2023-01-09T17:57:18.663Z,6.80
2023-01-09T17:59:47.125Z,5.93
2023-01-09T18:02:20.405Z,2.45
2023-01-09T18:04:50.625Z,5.15
2023-01-09T18:07:22.326Z,4.47
2023-01-09T18:09:51.687Z,3.75
2023-01-09T18:12:21.273Z,2.45
2023-01-09T18:14:52.320Z,2.75
2023-01-09T18:17:22.460Z,3.38
2023-01-09T18:19:51.281Z,1.67
2023-01-09T18:22:23.235Z,4.18
2023-01-09T18:24:52.706Z,2.80
2023-01-09T18:27:20.998Z,6.20
2023-01-09T18:29:51.157Z,2.40
2023-01-09T18:32:22.059Z,2.95
2023-01-09T18:34:50.824Z,3.00
2023-01-09T18:37:18.997Z,3.47
2023-01-09T18:39:47.847Z,2.28
2023-01-09T18:42:18.408Z,2.10
2023-01-09T18:44:48.461Z,3.65
2023-01-09T18:47:16.525Z,7.05
2023-01-09T18:49:44.569Z,99.05
2023-01-09T18:52:15.854Z,3.00
2023-01-09T18:54:45.614Z,1.43
2023-01-09T18:57:14.409Z,3.83
2023-01-09T18:59:45.204Z,1.25
2023-01-09T19:02:20.438Z,2.20
2023-01-09T19:04:49.403Z,1.85
2023-01-09T19:07:21.215Z,2.47
2023-01-09T19:09:49.661Z,2.63
2023-01-09T19:12:19.911Z,3.03
2023-01-09T19:14:49.951Z,6.85
2023-01-09T19:17:18.316Z,3.67
2023-01-09T19:19:46.778Z,1.92
2023-01-09T19:22:15.296Z,2.45
2023-01-09T19:24:43.915Z,5.18
2023-01-09T19:27:14.028Z,3.35
2023-01-09T19:29:43.083Z,6.40
2023-01-09T19:32:13.889Z,2.20
2023-01-09T19:34:42.240Z,2.95
2023-01-09T19:37:10.838Z,3.08
2023-01-09T19:39:39.558Z,6.25
2023-01-09T19:42:09.123Z,2.92
2023-01-09T19:44:39.493Z,3.67
2023-01-09T19:47:08.423Z,5.07
2023-01-09T19:49:39.852Z,5.95
2023-01-09T19:52:08.309Z,1.77
2023-01-09T19:54:37.729Z,1.73
2023-01-09T19:57:05.859Z,22.08
2023-01-09T19:59:36.193Z,2.65
2023-01-09T20:02:05.894Z,1.77
2023-01-09T20:04:35.344Z,3.60
2023-01-09T20:07:05.070Z,2.88
2023-01-09T20:09:33.511Z,3.78
2023-01-09T20:12:02.707Z,1.85
2023-01-09T20:14:30.789Z,4.30
2023-01-09T20:17:01.077Z,4.05
2023-01-09T20:19:32.595Z,3.63
2023-01-09T20:22:01.033Z,1.90
2023-01-09T20:24:30.486Z,3.17
2023-01-09T20:26:58.651Z,6.57
2023-01-09T20:29:26.926Z,2.22
2023-01-09T20:31:56.419Z,2.78
2023-01-09T20:34:26.707Z,1.95
2023-01-09T20:36:55.977Z,3.92
2023-01-09T20:39:24.272Z,7.10
2023-01-09T20:41:53.814Z,4.07
2023-01-09T20:44:22.781Z,2.30
2023-01-09T20:46:53.557Z,2.47
2023-01-09T20:49:22.952Z,2.78
2023-01-09T20:51:53.256Z,2.08
2023-01-09T20:54:22.850Z,2.80
2023-01-09T20:56:53.563Z,5.80
2023-01-09T20:59:22.904Z,1.40
2023-01-09T21:01:51.442Z,2.42
2023-01-09T21:04:19.721Z,1.40
2023-01-09T21:06:49.978Z,2.50
2023-01-09T21:09:18.597Z,2.50
2023-01-09T21:11:46.927Z,2.97
2023-01-09T21:14:16.308Z,1.75
2023-01-09T21:16:53.821Z,2.45
2023-01-09T21:19:23.350Z,4.20
2023-01-09T21:21:53.257Z,1.95
2023-01-09T21:24:21.928Z,9.32
2023-01-09T21:26:49.942Z,3.33
2023-01-09T21:29:19.626Z,2.92
2023-01-09T21:31:48.305Z,2.05
2023-01-09T21:34:20.137Z,1.65
2023-01-09T21:36:49.058Z,4.05
2023-01-09T21:39:17.726Z,3.05
2023-01-09T21:42:03.232Z,2.28
2023-01-09T21:44:50.293Z,3.38
2023-01-09T21:47:18.354Z,4.32
2023-01-09T21:49:47.113Z,6.70
2023-01-09T21:52:18.292Z,4.63
2023-01-09T21:54:46.847Z,4.65
2023-01-09T21:57:14.895Z,3.85
2023-01-09T21:59:45.832Z,2.08
2023-01-09T22:02:15.764Z,3.13
2023-01-09T22:04:48.487Z,3.40
2023-01-09T22:07:18.292Z,6.15
2023-01-09T22:09:46.431Z,3.05
2023-01-09T22:12:14.783Z,2.95
2023-01-09T22:14:44.469Z,5.05
2023-01-09T22:17:12.687Z,3.30
2023-01-09T22:19:40.876Z,3.08
2023-01-09T22:22:09.968Z,3.67
2023-01-09T22:24:38.211Z,2.67
2023-01-09T22:27:06.305Z,4.65
2023-01-09T22:29:34.801Z,1.33
2023-01-09T22:32:04.739Z,2.40
2023-01-09T22:34:32.839Z,3.17
2023-01-09T22:37:01.213Z,5.80
2023-01-09T22:39:32.103Z,3.08
2023-01-09T22:42:02.327Z,2.92
2023-01-09T22:44:30.647Z,4.45
2023-01-09T22:46:59.181Z,3.92
2023-01-09T22:49:33.450Z,3.90
2023-01-09T22:52:09.220Z,5.70
2023-01-09T22:54:37.369Z,2.20
2023-01-09T22:57:05.728Z,5.35
2023-01-09T22:59:33.787Z,6.20
2023-01-09T23:02:02.135Z,2.20
2023-01-09T23:04:31.527Z,6.32
2023-01-09T23:06:59.546Z,6.40
2023-01-09T23:09:27.878Z,4.60
2023-01-09T23:12:08.625Z,8.02
2023-01-09T23:14:40.975Z,2.85
2023-01-09T23:19:40.471Z,5.95
2023-01-09T23:22:08.974Z,3.10
2023-01-09T23:24:37.059Z,2.42
2023-01-09T23:27:05.576Z,2.90
2023-01-09T23:29:33.738Z,3.70
2023-01-09T23:32:07.441Z,6.95
2023-01-09T23:34:35.654Z,3.30
2023-01-09T23:37:08.930Z,4.10
2023-01-09T23:39:37.005Z,4.75
2023-01-09T23:42:37.341Z,8.45
2023-01-09T23:45:06.276Z,2.65
2023-01-09T23:47:34.763Z,5.78
2023-01-09T23:50:03.980Z,5.47
2023-01-09T23:52:33.883Z,5.57
2023-01-09T23:55:02.071Z,4.55
2023-01-09T23:57:30.822Z,4.55
2023-01-09T23:59:59.358Z,3.45
